createdAt,value
2019-05-02T00:01:18.707Z,83.75
2019-05-02T00:03:47.227Z,84.17
2019-05-02T00:06:16.182Z,84.38
2019-05-02T00:08:44.851Z,84.64
2019-05-02T00:11:13.899Z,85.46
2019-05-02T00:13:42.439Z,85.21
2019-05-02T00:16:14.122Z,85.48
2019-05-02T00:18:41.138Z,86.11
2019-05-02T00:21:09.886Z,86.63
2019-05-02T00:23:38.425Z,87.26
2019-05-02T00:26:06.958Z,87.37
2019-05-02T00:28:35.456Z,87.29
2019-05-02T00:31:07.453Z,87.34
2019-05-02T00:33:35.867Z,88.91
2019-05-02T00:36:04.741Z,89.26
2019-05-02T00:38:37.889Z,89.29
2019-05-02T00:41:03.746Z,90.59
2019-05-02T00:43:34.467Z,91.16
2019-05-02T00:46:02.322Z,91.04
2019-05-02T00:48:37.845Z,90.11
2019-05-02T00:51:06.295Z,89.56
2019-05-02T00:53:34.693Z,88.02
2019-05-02T00:56:05.157Z,88.16
2019-05-02T00:58:33.195Z,88.17
2019-05-02T01:01:11.687Z,88.20
2019-05-02T01:03:41.802Z,88.38
2019-05-02T01:06:14.376Z,88.17
2019-05-02T01:08:40.445Z,87.85
2019-05-02T01:11:09.285Z,87.93
2019-05-02T01:13:37.696Z,88.23
2019-05-02T01:16:06.172Z,88.72
2019-05-02T01:18:37.300Z,89.39
2019-05-02T01:21:04.699Z,89.78
2019-05-02T01:23:33.120Z,90.36
2019-05-02T01:26:01.511Z,90.55
2019-05-02T01:28:54.213Z,90.38
2019-05-02T01:31:23.943Z,90.34
2019-05-02T01:33:53.994Z,90.52
2019-05-02T01:36:29.500Z,91.01
2019-05-02T01:38:57.892Z,91.07
2019-05-02T01:41:29.114Z,90.58
2019-05-02T01:44:00.050Z,90.47
2019-05-02T01:46:26.527Z,91.26
2019-05-02T01:48:54.920Z,91.56
2019-05-02T01:51:23.437Z,92.11
2019-05-02T01:53:51.865Z,91.40
2019-05-02T01:56:20.249Z,90.86
2019-05-02T01:58:48.633Z,90.24
2019-05-02T02:01:21.399Z,90.30
2019-05-02T02:03:49.112Z,89.96
2019-05-02T02:06:17.538Z,89.68
2019-05-02T02:08:45.913Z,90.10
2019-05-02T02:11:14.453Z,90.03
2019-05-02T02:13:42.838Z,89.77
2019-05-02T02:16:11.221Z,90.32
2019-05-02T02:18:41.529Z,90.29
2019-05-02T02:21:25.464Z,90.48
2019-05-02T02:23:54.427Z,90.31
2019-05-02T02:26:24.180Z,90.31
2019-05-02T02:28:52.621Z,90.08
2019-05-02T02:31:21.964Z,89.77
2019-05-02T02:33:50.630Z,91.37
2019-05-02T02:36:30.021Z,92.19
2019-05-02T02:38:49.283Z,92.19
2019-05-02T02:41:17.657Z,91.74
2019-05-02T02:43:47.701Z,93.00
2019-05-02T02:46:20.482Z,94.05
2019-05-02T02:48:48.884Z,94.34
2019-05-02T02:51:23.816Z,94.41
2019-05-02T02:53:47.495Z,94.67
2019-05-02T02:56:15.944Z,94.83
2019-05-02T02:58:46.053Z,94.61
2019-05-02T03:01:14.410Z,91.92
2019-05-02T03:03:42.882Z,90.52
2019-05-02T03:06:11.315Z,90.08
2019-05-02T03:08:46.078Z,90.15
2019-05-02T03:11:22.298Z,90.53
2019-05-02T03:13:53.116Z,91.31
2019-05-02T03:16:24.258Z,91.66
2019-05-02T03:18:52.825Z,91.85
2019-05-02T03:21:22.501Z,91.48
2019-05-02T03:24:01.588Z,91.00
2019-05-02T03:28:35.055Z,91.06
2019-05-02T03:31:21.741Z,90.85
2019-05-02T03:33:51.607Z,91.42
2019-05-02T03:36:04.420Z,91.92
2019-05-02T03:38:35.265Z,92.05
2019-05-02T03:41:03.248Z,92.39
2019-05-02T03:43:31.915Z,93.02
2019-05-02T03:46:00.633Z,93.58
2019-05-02T03:48:29.010Z,94.26
2019-05-02T03:50:57.481Z,94.15
2019-05-02T03:53:27.700Z,94.17
2019-05-02T03:55:56.720Z,93.34
2019-05-02T03:58:25.409Z,93.24
2019-05-02T04:01:00.429Z,92.73
2019-05-02T04:03:25.245Z,92.52
2019-05-02T04:05:53.731Z,91.73
2019-05-02T04:08:22.702Z,91.46
2019-05-02T04:10:59.395Z,91.37
2019-05-02T04:13:30.149Z,91.24
2019-05-02T04:15:58.706Z,92.66
2019-05-02T04:18:27.247Z,93.35
2019-05-02T04:20:55.700Z,93.23
2019-05-02T04:23:27.741Z,93.18
2019-05-02T04:25:55.811Z,93.23
2019-05-02T04:28:25.135Z,93.27
2019-05-02T04:30:54.047Z,92.59
2019-05-02T04:33:22.574Z,92.41
2019-05-02T04:35:51.117Z,92.61
2019-05-02T04:38:24.501Z,91.92
2019-05-02T04:40:49.779Z,91.89
2019-05-02T04:43:18.511Z,91.25
2019-05-02T04:45:55.828Z,90.61
2019-05-02T04:48:18.402Z,89.84
2019-05-02T04:50:48.264Z,89.18
2019-05-02T04:53:18.857Z,89.00
2019-05-02T04:55:52.044Z,88.89
2019-05-02T04:58:27.637Z,90.36
2019-05-02T05:00:53.603Z,90.06
2019-05-02T05:03:21.129Z,90.00
2019-05-02T05:05:48.368Z,89.82
2019-05-02T05:08:26.053Z,89.92
2019-05-02T05:10:47.991Z,90.25
2019-05-02T05:13:21.595Z,89.61
2019-05-02T05:15:51.292Z,89.73
2019-05-02T05:18:17.700Z,89.35
2019-05-02T05:20:53.074Z,89.82
2019-05-02T05:23:21.313Z,89.52
2019-05-02T05:25:50.628Z,90.11
2019-05-02T05:28:20.087Z,90.23
2019-05-02T05:30:51.935Z,89.21
2019-05-02T05:33:18.674Z,88.25
2019-05-02T05:35:48.767Z,87.73
2019-05-02T05:38:18.182Z,86.79
2019-05-02T05:40:47.860Z,85.54
2019-05-02T05:43:20.333Z,84.26
2019-05-02T05:45:53.565Z,83.23
2019-05-02T05:48:18.406Z,82.47
2019-05-02T05:50:47.757Z,81.34
2019-05-02T05:53:17.380Z,80.75
2019-05-02T05:55:47.356Z,81.68
2019-05-02T05:58:18.524Z,81.70
2019-05-02T06:00:53.620Z,80.93
2019-05-02T06:03:17.895Z,81.20
2019-05-02T06:05:47.737Z,81.01
2019-05-02T06:08:18.425Z,81.01
2019-05-02T06:10:46.297Z,80.75
2019-05-02T06:13:14.691Z,79.33
2019-05-02T06:15:45.837Z,79.85
2019-05-02T06:18:13.232Z,78.41
2019-05-02T06:20:41.733Z,77.30
2019-05-02T06:23:10.150Z,77.13
2019-05-02T06:25:42.215Z,76.67
2019-05-02T06:28:09.058Z,76.68
2019-05-02T06:30:37.458Z,75.83
2019-05-02T06:33:05.947Z,77.21
2019-05-02T06:35:34.426Z,77.21
2019-05-02T06:38:02.836Z,77.10
2019-05-02T06:40:31.267Z,75.77
2019-05-02T06:43:04.319Z,76.64
2019-05-02T06:45:40.425Z,74.53
2019-05-02T06:48:17.189Z,73.99
2019-05-02T06:50:40.560Z,73.56
2019-05-02T06:53:11.057Z,71.10
2019-05-02T06:55:39.582Z,70.00
2019-05-02T06:58:08.348Z,68.42
2019-05-02T07:00:51.678Z,66.42
2019-05-02T07:03:10.235Z,64.22
2019-05-02T07:05:37.541Z,62.55
2019-05-02T07:08:11.196Z,61.57
2019-05-02T07:10:44.437Z,60.20
2019-05-02T07:13:10.819Z,60.03
2019-05-02T07:15:40.357Z,61.34
2019-05-02T07:18:12.100Z,62.82
2019-05-02T07:20:42.345Z,62.76
2019-05-02T07:23:15.875Z,62.25
2019-05-02T07:25:43.864Z,62.20
2019-05-02T07:28:10.960Z,63.05
2019-05-02T07:30:39.907Z,64.51
2019-05-02T07:33:08.318Z,65.17
2019-05-02T07:35:36.768Z,65.06
2019-05-02T07:38:05.174Z,64.92
2019-05-02T07:40:33.625Z,63.94
2019-05-02T07:43:02.512Z,63.35
2019-05-02T07:45:31.040Z,61.87
2019-05-02T07:48:01.433Z,60.81
2019-05-02T07:50:29.759Z,61.41
2019-05-02T07:52:58.235Z,62.00
2019-05-02T07:55:26.851Z,61.93
2019-05-02T07:57:55.263Z,62.79
2019-05-02T08:00:24.146Z,63.12
2019-05-02T08:02:52.709Z,64.64
2019-05-02T08:05:23.655Z,65.37
2019-05-02T08:07:53.340Z,64.53
2019-05-02T08:10:24.043Z,64.06
2019-05-02T08:12:52.459Z,63.35
2019-05-02T08:15:20.899Z,62.24
2019-05-02T08:17:53.803Z,61.97
2019-05-02T08:20:21.229Z,61.22
2019-05-02T08:22:50.419Z,60.20
2019-05-02T08:25:19.502Z,60.55
2019-05-02T08:27:52.340Z,58.87
2019-05-02T08:30:22.915Z,58.33
2019-05-02T08:32:51.457Z,58.03
2019-05-02T08:35:19.998Z,58.85
2019-05-02T08:37:48.422Z,58.93
2019-05-02T08:40:16.976Z,59.41
2019-05-02T08:42:45.531Z,58.15
2019-05-02T08:45:14.273Z,55.84
2019-05-02T08:47:42.844Z,54.15
2019-05-02T08:50:11.605Z,52.12
2019-05-02T08:52:42.300Z,50.16
2019-05-02T08:55:11.056Z,49.49
2019-05-02T08:57:39.595Z,48.20
2019-05-02T09:00:10.547Z,46.46
2019-05-02T09:02:41.620Z,46.38
2019-05-02T09:05:09.396Z,44.88
2019-05-02T09:07:39.368Z,43.08
2019-05-02T09:10:08.761Z,42.02
2019-05-02T09:12:43.679Z,43.41
2019-05-02T09:15:07.838Z,44.56
2019-05-02T09:17:38.855Z,43.96
2019-05-02T09:20:15.103Z,42.36
2019-05-02T09:22:38.221Z,42.31
2019-05-02T09:25:09.773Z,41.44
2019-05-02T09:27:38.210Z,41.27
2019-05-02T09:30:17.057Z,41.71
2019-05-02T09:32:43.338Z,41.34
2019-05-02T09:35:12.905Z,41.50
2019-05-02T09:37:42.042Z,41.67
2019-05-02T09:40:16.347Z,41.80
2019-05-02T09:42:42.952Z,41.45
2019-05-02T09:45:16.551Z,41.37
2019-05-02T09:47:56.271Z,40.03
2019-05-02T09:50:20.493Z,41.42
2019-05-02T09:52:47.412Z,42.09
2019-05-02T09:55:17.268Z,43.61
2019-05-02T09:57:47.254Z,43.40
2019-05-02T10:00:32.231Z,43.33
2019-05-02T10:02:59.132Z,43.78
2019-05-02T10:05:27.559Z,44.06
2019-05-02T10:07:57.538Z,43.72
2019-05-02T10:10:27.026Z,42.37
2019-05-02T10:12:55.443Z,39.56
2019-05-02T10:15:24.010Z,38.10
2019-05-02T10:17:52.501Z,37.58
2019-05-02T10:20:23.603Z,37.27
2019-05-02T10:22:52.949Z,36.90
2019-05-02T10:25:23.179Z,36.96
2019-05-02T10:27:52.328Z,37.51
2019-05-02T10:30:23.135Z,36.58
2019-05-02T10:32:56.009Z,37.11
2019-05-02T10:35:28.182Z,37.37
2019-05-02T10:37:53.543Z,36.77
2019-05-02T10:40:22.563Z,36.08
2019-05-02T10:42:52.249Z,35.61
2019-05-02T10:45:22.509Z,36.84
2019-05-02T10:47:52.686Z,35.00
2019-05-02T10:50:23.008Z,33.81
2019-05-02T10:52:52.712Z,33.62
2019-05-02T10:55:23.661Z,33.68
2019-05-02T10:57:52.676Z,32.82
2019-05-02T11:00:24.696Z,34.66
2019-05-02T11:03:11.957Z,36.19
2019-05-02T11:05:42.055Z,36.99
2019-05-02T11:08:11.989Z,37.85
2019-05-02T11:10:42.258Z,37.59
2019-05-02T11:13:18.204Z,37.26
2019-05-02T11:16:05.934Z,37.88
2019-05-02T11:18:54.439Z,37.46
2019-05-02T11:21:23.060Z,37.64
2019-05-02T11:23:52.619Z,36.48
2019-05-02T11:26:24.886Z,35.26
2019-05-02T11:28:52.107Z,37.57
2019-05-02T11:31:21.883Z,38.17
2019-05-02T11:33:52.726Z,38.26
2019-05-02T11:36:22.303Z,37.97
2019-05-02T11:39:00.399Z,38.17
2019-05-02T11:41:22.440Z,36.66
2019-05-02T11:43:54.140Z,37.66
2019-05-02T11:46:22.077Z,37.90
2019-05-02T11:48:56.295Z,36.18
2019-05-02T11:51:22.657Z,37.80
2019-05-02T11:53:52.618Z,38.64
2019-05-02T11:56:22.297Z,38.46
2019-05-02T11:58:52.630Z,37.32
2019-05-02T12:01:34.967Z,35.80
2019-05-02T12:03:52.580Z,35.52
2019-05-02T12:06:22.509Z,35.50
2019-05-02T12:08:52.641Z,35.51
2019-05-02T12:11:22.811Z,35.71
2019-05-02T12:13:52.903Z,36.18
2019-05-02T12:16:22.962Z,37.26
2019-05-02T12:18:53.583Z,37.43
2019-05-02T12:21:22.868Z,37.19
2019-05-02T12:23:52.752Z,36.95
2019-05-02T12:26:22.062Z,35.55
2019-05-02T12:28:52.678Z,35.80
2019-05-02T12:31:26.969Z,35.67
2019-05-02T12:33:56.482Z,34.36
2019-05-02T12:36:24.880Z,34.90
2019-05-02T12:38:53.427Z,35.81
2019-05-02T12:41:24.988Z,35.43
2019-05-02T12:43:52.499Z,33.86
2019-05-02T12:46:22.211Z,33.94
2019-05-02T12:48:51.989Z,34.31
2019-05-02T12:51:22.584Z,33.34
2019-05-02T12:53:52.862Z,34.54
2019-05-02T12:56:22.874Z,36.03
2019-05-02T12:58:52.991Z,36.10
2019-05-02T13:01:21.953Z,36.35
2019-05-02T13:03:52.314Z,36.12
2019-05-02T13:06:22.002Z,35.34
2019-05-02T13:08:52.529Z,35.39
2019-05-02T13:11:25.377Z,35.90
2019-05-02T13:13:53.874Z,37.31
2019-05-02T13:16:22.712Z,36.71
2019-05-02T13:18:57.150Z,35.95
2019-05-02T13:21:41.469Z,35.61
2019-05-02T13:24:07.444Z,35.21
2019-05-02T13:26:34.930Z,36.24
2019-05-02T13:29:03.446Z,37.97
2019-05-02T13:31:36.238Z,38.32
2019-05-02T13:34:15.866Z,38.47
2019-05-02T13:36:47.552Z,39.39
2019-05-02T13:39:34.685Z,39.36
2019-05-02T13:42:03.235Z,38.65
2019-05-02T13:44:35.723Z,38.46
2019-05-02T13:47:06.644Z,38.14
2019-05-02T13:49:35.148Z,38.71
2019-05-02T13:52:03.629Z,38.70
2019-05-02T13:54:33.168Z,38.01
2019-05-02T13:57:07.889Z,38.28
2019-05-02T13:59:33.619Z,36.53
2019-05-02T14:02:02.943Z,34.52
2019-05-02T14:04:32.659Z,34.12
2019-05-02T14:07:03.034Z,34.85
2019-05-02T14:09:35.518Z,36.40
2019-05-02T14:12:22.483Z,37.32
2019-05-02T14:14:51.896Z,37.74
2019-05-02T14:17:20.421Z,37.52
2019-05-02T14:19:48.922Z,37.98
2019-05-02T14:22:17.364Z,37.53
2019-05-02T14:24:45.872Z,36.08
2019-05-02T14:27:17.163Z,35.90
2019-05-02T14:29:44.700Z,35.75
2019-05-02T14:32:21.314Z,36.06
2019-05-02T14:34:47.464Z,34.82
2019-05-02T14:37:15.946Z,34.74
2019-05-02T14:39:46.236Z,34.76
2019-05-02T14:42:21.318Z,34.39
2019-05-02T14:45:04.303Z,33.39
2019-05-02T14:47:19.421Z,32.88
2019-05-02T14:49:45.256Z,32.96
2019-05-02T14:52:13.742Z,31.59
2019-05-02T14:54:46.478Z,30.72
2019-05-02T14:57:17.254Z,31.96
2019-05-02T14:59:50.293Z,32.61
2019-05-02T15:02:19.138Z,33.84
2019-05-02T15:04:48.980Z,32.50
2019-05-02T15:07:21.755Z,33.04
2019-05-02T15:09:47.599Z,34.06
2019-05-02T15:12:18.999Z,34.08
2019-05-02T15:14:49.264Z,33.24
2019-05-02T15:17:16.471Z,32.32
2019-05-02T15:19:44.906Z,33.75
2019-05-02T15:22:13.354Z,33.59
2019-05-02T15:24:42.400Z,34.29
2019-05-02T15:27:13.327Z,34.75
2019-05-02T15:29:41.972Z,34.64
2019-05-02T15:32:27.665Z,32.47
2019-05-02T15:35:17.730Z,32.17
2019-05-02T15:37:45.947Z,31.08
2019-05-02T15:42:52.242Z,32.23
2019-05-02T15:45:23.770Z,32.27
2019-05-02T15:47:52.594Z,32.50
2019-05-02T15:50:24.418Z,32.89
2019-05-02T15:52:57.325Z,32.65
2019-05-02T15:55:23.173Z,33.19
2019-05-02T15:57:53.648Z,33.50
2019-05-02T16:00:26.792Z,33.67
2019-05-02T16:02:56.225Z,34.32
2019-05-02T16:05:25.352Z,34.73
2019-05-02T16:08:05.348Z,35.32
2019-05-02T16:10:24.088Z,35.96
2019-05-02T16:12:53.601Z,36.30
2019-05-02T16:15:26.302Z,36.52
2019-05-02T16:17:56.766Z,36.88
2019-05-02T16:20:27.392Z,37.88
2019-05-02T16:22:55.876Z,38.21
2019-05-02T16:25:25.952Z,38.22
2019-05-02T16:27:57.451Z,40.98
2019-05-02T16:30:25.034Z,43.98
2019-05-02T16:32:55.287Z,49.39
2019-05-02T16:35:28.345Z,57.53
2019-05-02T16:37:56.837Z,64.42
2019-05-02T16:40:29.774Z,69.27
2019-05-02T16:42:56.327Z,88.47
2019-05-02T16:45:25.119Z,85.05
2019-05-02T16:47:58.693Z,83.08
2019-05-02T16:50:27.490Z,84.53
2019-05-02T16:52:54.215Z,84.03
2019-05-02T16:55:26.493Z,85.85
2019-05-02T16:57:56.708Z,86.50
2019-05-02T17:00:25.556Z,87.94
2019-05-02T17:02:54.141Z,87.35
2019-05-02T17:05:22.623Z,89.16
2019-05-02T17:08:10.574Z,91.04
2019-05-02T17:10:42.221Z,87.96
2019-05-02T17:13:12.511Z,90.02
2019-05-02T17:15:42.759Z,87.70
2019-05-02T17:18:17.208Z,89.75
2019-05-02T17:20:41.672Z,90.00
2019-05-02T17:23:10.088Z,88.83
2019-05-02T17:25:38.582Z,90.04
2019-05-02T17:28:10.537Z,89.85
2019-05-02T17:30:38.815Z,90.86
2019-05-02T17:33:14.338Z,89.60
2019-05-02T17:35:43.390Z,89.21
2019-05-02T17:38:08.146Z,87.40
2019-05-02T17:40:36.643Z,88.62
2019-05-02T17:43:07.039Z,88.16
2019-05-02T17:45:38.556Z,89.11
2019-05-02T17:48:10.413Z,89.92
2019-05-02T17:50:59.223Z,87.80
2019-05-02T17:53:26.241Z,86.56
2019-05-02T17:55:54.841Z,85.82
2019-05-02T17:58:23.235Z,89.77
2019-05-02T18:00:56.180Z,87.64
2019-05-02T18:03:30.721Z,85.64
2019-05-02T18:05:53.680Z,86.15
2019-05-02T18:08:22.175Z,87.22
2019-05-02T18:10:56.094Z,86.89
2019-05-02T18:13:22.686Z,87.09
2019-05-02T18:15:53.247Z,87.92
2019-05-02T18:18:22.146Z,88.08
2019-05-02T18:20:52.720Z,86.88
2019-05-02T18:23:25.743Z,87.69
2019-05-02T18:25:52.562Z,89.57
2019-05-02T18:28:25.913Z,87.39
2019-05-02T18:30:52.465Z,87.49
2019-05-02T18:33:22.651Z,87.22
2019-05-02T18:35:52.612Z,86.24
2019-05-02T18:38:22.271Z,87.51
2019-05-02T18:40:52.418Z,87.31
2019-05-02T18:43:22.258Z,87.34
2019-05-02T18:45:51.555Z,86.83
2019-05-02T18:48:21.865Z,87.92
2019-05-02T18:50:52.434Z,88.87
2019-05-02T18:53:25.702Z,87.86
2019-05-02T18:55:51.877Z,89.16
2019-05-02T18:58:22.403Z,90.33
2019-05-02T19:00:52.004Z,89.49
2019-05-02T19:03:20.687Z,90.01
2019-05-02T19:05:51.484Z,89.31
2019-05-02T19:08:29.070Z,89.07
2019-05-02T19:11:02.491Z,88.83
2019-05-02T19:13:19.872Z,89.32
2019-05-02T19:15:49.017Z,90.20
2019-05-02T19:18:18.416Z,90.32
2019-05-02T19:20:57.457Z,90.41
2019-05-02T19:23:24.433Z,90.79
2019-05-02T19:25:52.988Z,89.90
2019-05-02T19:28:23.286Z,89.62
2019-05-02T19:30:52.098Z,89.65
2019-05-02T19:33:21.583Z,90.61
2019-05-02T19:35:52.574Z,89.25
2019-05-02T19:38:22.564Z,89.62
2019-05-02T19:40:52.040Z,89.78
2019-05-02T19:43:22.919Z,89.90
2019-05-02T19:45:53.921Z,90.09
2019-05-02T19:48:33.019Z,89.36
2019-05-02T19:51:02.378Z,89.81
2019-05-02T19:53:32.272Z,89.86
2019-05-02T19:56:03.068Z,89.79
2019-05-02T19:58:36.765Z,90.79
2019-05-02T20:03:34.909Z,92.32
2019-05-02T20:06:06.056Z,91.73
2019-05-02T20:08:33.844Z,91.89
2019-05-02T20:11:02.418Z,91.85
2019-05-02T20:13:32.717Z,91.75
2019-05-02T20:16:06.058Z,91.53
2019-05-02T20:18:42.542Z,91.94
2019-05-02T20:21:12.107Z,92.41
2019-05-02T20:23:39.727Z,92.81
2019-05-02T20:26:09.500Z,93.26
2019-05-02T20:28:38.495Z,92.65
2019-05-02T20:31:06.981Z,93.13
2019-05-02T20:33:35.388Z,92.86
2019-05-02T20:36:04.088Z,93.50
2019-05-02T20:38:32.615Z,94.08
2019-05-02T20:41:02.765Z,94.39
2019-05-02T20:43:32.300Z,94.77
2019-05-02T20:46:02.600Z,94.64
2019-05-02T20:48:32.263Z,95.26
2019-05-02T20:51:02.658Z,95.50
2019-05-02T20:53:34.120Z,95.23
2019-05-02T20:56:01.923Z,95.58
2019-05-02T20:58:32.496Z,95.03
2019-05-02T21:01:06.240Z,94.90
2019-05-02T21:03:32.029Z,95.17
2019-05-02T21:06:08.161Z,95.42
2019-05-02T21:08:54.473Z,96.06
2019-05-02T21:11:24.428Z,97.63
2019-05-02T21:13:52.954Z,98.37
2019-05-02T21:16:21.885Z,98.14
2019-05-02T21:18:50.335Z,97.56
2019-05-02T21:21:21.976Z,96.99
2019-05-02T21:23:52.806Z,97.79
2019-05-02T21:26:22.019Z,96.87
2019-05-02T21:28:52.188Z,97.36
2019-05-02T21:31:22.391Z,97.94
2019-05-02T21:33:51.976Z,98.65
2019-05-02T21:36:22.517Z,99.33
2019-05-02T21:38:52.153Z,100.00
2019-05-02T21:41:22.244Z,98.41
2019-05-02T21:43:51.878Z,99.16
2019-05-02T21:46:22.185Z,99.83
2019-05-02T21:48:52.463Z,100.00
2019-05-02T21:51:34.431Z,100.00
2019-05-02T21:54:22.705Z,100.00
2019-05-02T21:56:55.910Z,100.00
2019-05-02T21:59:24.456Z,100.00
2019-05-02T22:01:55.096Z,100.00
2019-05-02T22:04:23.661Z,100.00
2019-05-02T22:06:52.473Z,100.00
2019-05-02T22:09:23.079Z,100.00
2019-05-02T22:11:52.225Z,100.00
2019-05-02T22:14:22.323Z,100.00
2019-05-02T22:16:53.016Z,100.00
2019-05-02T22:19:21.205Z,100.00
2019-05-02T22:21:49.842Z,100.00
2019-05-02T22:24:18.469Z,100.00
2019-05-02T22:26:46.965Z,100.00
2019-05-02T22:29:15.375Z,100.00
2019-05-02T22:31:43.807Z,100.00
2019-05-02T22:34:12.962Z,100.00
2019-05-02T22:36:42.098Z,100.00
2019-05-02T22:39:22.237Z,100.00
2019-05-02T22:41:52.469Z,100.00
2019-05-02T22:44:21.846Z,100.00
2019-05-02T22:46:52.065Z,100.00
2019-05-02T22:49:22.479Z,100.00
2019-05-02T22:51:51.012Z,100.00
2019-05-02T22:54:27.636Z,100.00
2019-05-02T22:56:49.570Z,100.00
2019-05-02T22:59:17.978Z,100.00
2019-05-02T23:01:46.448Z,100.00
2019-05-02T23:04:14.958Z,100.00
2019-05-02T23:06:44.293Z,100.00
2019-05-02T23:09:13.032Z,100.00
2019-05-02T23:11:42.565Z,100.00
2019-05-02T23:14:11.316Z,100.00
2019-05-02T23:16:42.319Z,100.00
2019-05-02T23:19:12.035Z,100.00
2019-05-02T23:21:41.942Z,100.00
2019-05-02T23:24:14.475Z,100.00
2019-05-02T23:26:43.848Z,100.00
2019-05-02T23:29:13.985Z,100.00
2019-05-02T23:31:42.471Z,100.00
2019-05-02T23:34:11.016Z,100.00
2019-05-02T23:36:41.480Z,100.00
2019-05-02T23:39:12.301Z,100.00
2019-05-02T23:41:42.036Z,100.00
2019-05-02T23:44:12.288Z,100.00
2019-05-02T23:46:42.409Z,100.00
2019-05-02T23:49:12.821Z,100.00
2019-05-02T23:51:42.760Z,100.00
2019-05-02T23:54:12.849Z,100.00
2019-05-02T23:56:43.139Z,100.00
2019-05-02T23:59:12.036Z,100.00
